CYYN

Swift Current Airport

Swift Current, Saskatchewan, Canada
METAR CYYN 140100Z AUTO 26020G26KT 9SM BKN220 BKN240 02/M03 A2977 RMK SLP113
Observed Flight Rules
Dec-14 @ 01:00 UTC (19 minutes ago) Visual Flight Rules
Wind Visibility Clouds
260° at 20 knots
 Gusting to 26 knots
9 miles
  • Broken at 22,000' AGL
  • Broken at 24,000' AGL
Temperatures Readings
Current 2°C / 36°F
Dewpoint -3°C / 27°F
Humidity 70%
Altimeter 29.77" Hg
Pressure 1011.3 hPa
Elevation 818
METAR CYYN 140100Z AUTO 26020G26KT 9SM BKN220 BKN240 02/M03 A2977 RMK SLP113
Observed Flight Rules
Dec-14 @ 01:00 UTC
(19 minutes ago)
VFR
Wind Visibility
260° at 20 knots
 Gusting to 26 knots
9 miles
Clouds
  • Broken at 22,000' AGL
  • Broken at 24,000' AGL
Temperature Dewpoint
2°C / 36°F -3°C / 27°F
Humidity Altimeter Pressure
70% 29.77" Hg 1011.3 hPa